sensor_id;sensor_type;location;lat;lon;timestamp;pressure;altitude;pressure_sealevel;temperature;humidity
15674;BME280;7937;48.090;16.212;2023-05-01T00:02:36;98105.56;;;3.69;89.13
15674;BME280;7937;48.090;16.212;2023-05-01T00:05:39;98100.88;;;3.65;89.15
15674;BME280;7937;48.090;16.212;2023-05-01T00:08:41;98102.31;;;3.67;89.23
15674;BME280;7937;48.090;16.212;2023-05-01T00:11:43;98089.25;;;3.59;89.34
15674;BME280;7937;48.090;16.212;2023-05-01T00:14:45;98090.25;;;3.58;89.38
15674;BME280;7937;48.090;16.212;2023-05-01T00:17:47;98057.97;;;3.34;89.53
15674;BME280;7937;48.090;16.212;2023-05-01T00:20:49;98088.38;;;3.52;89.68
15674;BME280;7937;48.090;16.212;2023-05-01T00:23:51;98085.28;;;3.48;89.48
15674;BME280;7937;48.090;16.212;2023-05-01T00:26:53;98083.47;;;3.49;89.52
15674;BME280;7937;48.090;16.212;2023-05-01T00:29:55;98078.66;;;3.52;89.67
15674;BME280;7937;48.090;16.212;2023-05-01T00:32:58;98089.75;;;3.48;89.39
15674;BME280;7937;48.090;16.212;2023-05-01T00:36:01;98075.34;;;3.29;89.51
15674;BME280;7937;48.090;16.212;2023-05-01T00:39:04;98086.41;;;3.39;89.34
15674;BME280;7937;48.090;16.212;2023-05-01T00:42:08;98072.56;;;3.30;89.57
15674;BME280;7937;48.090;16.212;2023-05-01T00:45:10;98081.78;;;3.41;89.50
15674;BME280;7937;48.090;16.212;2023-05-01T00:48:13;98082.69;;;3.33;89.28
15674;BME280;7937;48.090;16.212;2023-05-01T00:51:15;98084.25;;;3.28;89.34
15674;BME280;7937;48.090;16.212;2023-05-01T00:54:17;98080.00;;;3.27;89.59
15674;BME280;7937;48.090;16.212;2023-05-01T00:57:21;98074.53;;;3.28;89.48
15674;BME280;7937;48.090;16.212;2023-05-01T01:00:23;98068.47;;;3.28;89.35
15674;BME280;7937;48.090;16.212;2023-05-01T01:03:25;98082.56;;;3.20;89.28
15674;BME280;7937;48.090;16.212;2023-05-01T01:06:41;98080.75;;;3.21;89.48
15674;BME280;7937;48.090;16.212;2023-05-01T01:13:07;98073.91;;;3.26;89.39
15674;BME280;7937;48.090;16.212;2023-05-01T01:16:18;98073.00;;;3.19;88.96
15674;BME280;7937;48.090;16.212;2023-05-01T01:36:50;98063.00;;;2.93;89.28
15674;BME280;7937;48.090;16.212;2023-05-01T01:43:11;98055.66;;;2.89;89.25
15674;BME280;7937;48.090;16.212;2023-05-01T01:46:17;98058.81;;;2.84;89.08
15674;BME280;7937;48.090;16.212;2023-05-01T01:49:24;98056.13;;;2.77;89.06
15674;BME280;7937;48.090;16.212;2023-05-01T01:52:27;98058.75;;;2.77;89.17
15674;BME280;7937;48.090;16.212;2023-05-01T01:55:32;98053.47;;;2.77;89.15
15674;BME280;7937;48.090;16.212;2023-05-01T01:58:37;98051.22;;;2.74;89.06
15674;BME280;7937;48.090;16.212;2023-05-01T02:01:40;98054.22;;;2.71;88.88
15674;BME280;7937;48.090;16.212;2023-05-01T02:04:47;98053.09;;;2.66;88.90
15674;BME280;7937;48.090;16.212;2023-05-01T02:07:50;98047.22;;;2.64;89.01
15674;BME280;7937;48.090;16.212;2023-05-01T02:10:53;98048.78;;;2.58;89.01
15674;BME280;7937;48.090;16.212;2023-05-01T02:14:04;98046.16;;;2.58;89.13
15674;BME280;7937;48.090;16.212;2023-05-01T02:17:08;98035.34;;;2.53;89.24
15674;BME280;7937;48.090;16.212;2023-05-01T02:20:11;98038.72;;;2.47;89.12
15674;BME280;7937;48.090;16.212;2023-05-01T02:23:14;98039.06;;;2.44;89.21
15674;BME280;7937;48.090;16.212;2023-05-01T02:26:19;98032.53;;;2.40;89.12
15674;BME280;7937;48.090;16.212;2023-05-01T02:29:24;98039.16;;;2.36;89.12
15674;BME280;7937;48.090;16.212;2023-05-01T02:32:26;98029.63;;;2.35;89.12
15674;BME280;7937;48.090;16.212;2023-05-01T02:35:29;98021.13;;;2.32;89.20
15674;BME280;7937;48.090;16.212;2023-05-01T02:38:32;97980.22;;;2.00;89.17
15674;BME280;7937;48.090;16.212;2023-05-01T02:41:34;98025.03;;;2.22;89.12
15674;BME280;7937;48.090;16.212;2023-05-01T02:44:41;98023.91;;;2.16;89.51
15674;BME280;7937;48.090;16.212;2023-05-01T02:47:48;98014.75;;;2.12;89.49
15674;BME280;7937;48.090;16.212;2023-05-01T02:50:52;98013.31;;;2.10;89.47
15674;BME280;7937;48.090;16.212;2023-05-01T02:53:55;98017.13;;;2.07;89.65
15674;BME280;7937;48.090;16.212;2023-05-01T02:56:57;98009.78;;;2.02;89.39
15674;BME280;7937;48.090;16.212;2023-05-01T03:00:00;98011.13;;;1.98;89.73
15674;BME280;7937;48.090;16.212;2023-05-01T03:03:02;98004.25;;;1.97;89.73
15674;BME280;7937;48.090;16.212;2023-05-01T03:06:04;98002.97;;;1.93;89.64
15674;BME280;7937;48.090;16.212;2023-05-01T03:09:06;98000.69;;;1.90;89.74
15674;BME280;7937;48.090;16.212;2023-05-01T03:12:10;97998.06;;;1.90;89.80
15674;BME280;7937;48.090;16.212;2023-05-01T03:15:12;97997.25;;;1.90;89.63
15674;BME280;7937;48.090;16.212;2023-05-01T03:18:14;98000.34;;;1.93;89.98
15674;BME280;7937;48.090;16.212;2023-05-01T03:21:16;97998.78;;;1.99;90.09
15674;BME280;7937;48.090;16.212;2023-05-01T03:24:18;97978.66;;;1.91;89.87
15674;BME280;7937;48.090;16.212;2023-05-01T03:27:20;97996.50;;;1.96;89.81
15674;BME280;7937;48.090;16.212;2023-05-01T03:30:22;98004.31;;;1.89;89.59
15674;BME280;7937;48.090;16.212;2023-05-01T03:33:26;97998.59;;;1.86;89.66
15674;BME280;7937;48.090;16.212;2023-05-01T03:36:28;97998.41;;;1.87;89.83
15674;BME280;7937;48.090;16.212;2023-05-01T03:39:30;97999.78;;;1.83;89.56
15674;BME280;7937;48.090;16.212;2023-05-01T03:42:58;98004.38;;;1.81;89.85
15674;BME280;7937;48.090;16.212;2023-05-01T03:46:00;97997.97;;;1.84;89.90
15674;BME280;7937;48.090;16.212;2023-05-01T03:49:03;97997.78;;;1.85;89.85
15674;BME280;7937;48.090;16.212;2023-05-01T03:52:10;98004.03;;;1.84;89.83
15674;BME280;7937;48.090;16.212;2023-05-01T03:55:13;98002.41;;;1.83;89.89
15674;BME280;7937;48.090;16.212;2023-05-01T03:58:16;97998.59;;;1.86;89.92
15674;BME280;7937;48.090;16.212;2023-05-01T04:01:19;98003.38;;;1.82;89.81
15674;BME280;7937;48.090;16.212;2023-05-01T04:04:21;98000.31;;;1.78;89.89
15674;BME280;7937;48.090;16.212;2023-05-01T04:07:29;97993.59;;;1.76;90.06
15674;BME280;7937;48.090;16.212;2023-05-01T04:10:31;97983.06;;;1.76;90.02
15674;BME280;7937;48.090;16.212;2023-05-01T04:13:37;97993.25;;;1.79;90.21
15674;BME280;7937;48.090;16.212;2023-05-01T04:16:39;97986.16;;;1.79;90.58
15674;BME280;7937;48.090;16.212;2023-05-01T04:19:42;97990.22;;;1.82;90.60
15674;BME280;7937;48.090;16.212;2023-05-01T04:22:44;97987.72;;;1.89;90.31
15674;BME280;7937;48.090;16.212;2023-05-01T04:25:46;97960.78;;;1.72;90.11
15674;BME280;7937;48.090;16.212;2023-05-01T04:28:51;97990.69;;;1.86;90.60
15674;BME280;7937;48.090;16.212;2023-05-01T04:31:56;97985.25;;;1.87;90.66
15674;BME280;7937;48.090;16.212;2023-05-01T04:34:59;97989.34;;;1.90;90.69
15674;BME280;7937;48.090;16.212;2023-05-01T04:38:01;97976.84;;;1.92;90.77
15674;BME280;7937;48.090;16.212;2023-05-01T04:41:04;97975.06;;;1.92;90.86
15674;BME280;7937;48.090;16.212;2023-05-01T04:44:07;97983.66;;;2.01;91.10
15674;BME280;7937;48.090;16.212;2023-05-01T04:47:09;97981.97;;;2.08;91.26
15674;BME280;7937;48.090;16.212;2023-05-01T04:50:11;97982.31;;;2.20;91.26
15674;BME280;7937;48.090;16.212;2023-05-01T04:53:13;97991.66;;;2.22;91.23
15674;BME280;7937;48.090;16.212;2023-05-01T04:56:16;97981.78;;;2.24;91.22
15674;BME280;7937;48.090;16.212;2023-05-01T04:59:20;97978.59;;;2.29;91.45
15674;BME280;7937;48.090;16.212;2023-05-01T05:02:22;97975.06;;;2.37;91.25
15674;BME280;7937;48.090;16.212;2023-05-01T05:05:24;97983.84;;;2.44;91.33
15674;BME280;7937;48.090;16.212;2023-05-01T05:08:27;97988.38;;;2.50;91.29
15674;BME280;7937;48.090;16.212;2023-05-01T05:11:34;97988.63;;;2.55;91.26
15674;BME280;7937;48.090;16.212;2023-05-01T05:14:41;97971.31;;;2.61;91.11
15674;BME280;7937;48.090;16.212;2023-05-01T05:17:44;97977.94;;;2.71;91.32
15674;BME280;7937;48.090;16.212;2023-05-01T05:20:47;97949.19;;;2.55;91.15
15674;BME280;7937;48.090;16.212;2023-05-01T05:23:49;97980.28;;;2.81;91.05
15674;BME280;7937;48.090;16.212;2023-05-01T05:26:51;97982.78;;;2.89;91.13
15674;BME280;7937;48.090;16.212;2023-05-01T05:29:54;97981.88;;;2.97;91.02
15674;BME280;7937;48.090;16.212;2023-05-01T05:32:56;97981.31;;;3.01;91.01
15674;BME280;7937;48.090;16.212;2023-05-01T05:35:58;97980.75;;;3.06;91.09
15674;BME280;7937;48.090;16.212;2023-05-01T05:39:06;97979.06;;;3.20;90.99
15674;BME280;7937;48.090;16.212;2023-05-01T05:42:09;97981.56;;;3.28;91.04
15674;BME280;7937;48.090;16.212;2023-05-01T05:45:11;97980.66;;;3.35;90.93
15674;BME280;7937;48.090;16.212;2023-05-01T05:48:13;97983.78;;;3.46;90.97
15674;BME280;7937;48.090;16.212;2023-05-01T05:51:15;97983.47;;;3.55;90.90
15674;BME280;7937;48.090;16.212;2023-05-01T05:54:17;97979.50;;;3.66;90.91
15674;BME280;7937;48.090;16.212;2023-05-01T05:57:21;97982.41;;;3.78;90.94
15674;BME280;7937;48.090;16.212;2023-05-01T06:00:24;97979.88;;;3.91;90.95
15674;BME280;7937;48.090;16.212;2023-05-01T06:03:27;97982.44;;;4.06;90.98
15674;BME280;7937;48.090;16.212;2023-05-01T06:06:33;97973.19;;;4.23;91.13
15674;BME280;7937;48.090;16.212;2023-05-01T06:09:36;97966.59;;;4.34;91.02
15674;BME280;7937;48.090;16.212;2023-05-01T06:12:38;97961.19;;;4.55;91.09
15674;BME280;7937;48.090;16.212;2023-05-01T06:15:45;97967.38;;;4.76;91.12
15674;BME280;7937;48.090;16.212;2023-05-01T06:18:48;97967.03;;;4.99;91.05
15674;BME280;7937;48.090;16.212;2023-05-01T06:21:51;97966.28;;;5.18;90.96
15674;BME280;7937;48.090;16.212;2023-05-01T06:24:53;97971.59;;;5.44;90.85
15674;BME280;7937;48.090;16.212;2023-05-01T06:27:58;97966.13;;;5.66;90.94
15674;BME280;7937;48.090;16.212;2023-05-01T06:31:00;97966.16;;;5.92;90.81
15674;BME280;7937;48.090;16.212;2023-05-01T06:34:07;97971.59;;;6.24;90.47
15674;BME280;7937;48.090;16.212;2023-05-01T06:37:25;97964.78;;;6.61;89.97
15674;BME280;7937;48.090;16.212;2023-05-01T06:40:28;97964.16;;;7.04;89.30
15674;BME280;7937;48.090;16.212;2023-05-01T06:43:32;97958.44;;;7.45;86.66
15674;BME280;7937;48.090;16.212;2023-05-01T06:46:34;97957.47;;;7.90;86.09
15674;BME280;7937;48.090;16.212;2023-05-01T06:49:36;97961.44;;;8.24;84.40
15674;BME280;7937;48.090;16.212;2023-05-01T06:52:39;97946.38;;;8.43;83.97
15674;BME280;7937;48.090;16.212;2023-05-01T06:55:41;97972.09;;;8.79;82.17
15674;BME280;7937;48.090;16.212;2023-05-01T06:58:43;97962.63;;;9.01;80.88
15674;BME280;7937;48.090;16.212;2023-05-01T07:01:45;97961.81;;;9.31;79.38
15674;BME280;7937;48.090;16.212;2023-05-01T07:04:47;97956.66;;;9.60;78.32
15674;BME280;7937;48.090;16.212;2023-05-01T07:07:49;97952.53;;;9.99;63.31
15674;BME280;7937;48.090;16.212;2023-05-01T07:11:02;97954.50;;;10.39;65.27
15674;BME280;7937;48.090;16.212;2023-05-01T07:14:04;97952.16;;;10.66;68.88
15674;BME280;7937;48.090;16.212;2023-05-01T07:17:06;97957.69;;;10.76;68.42
15674;BME280;7937;48.090;16.212;2023-05-01T07:20:10;97955.63;;;11.06;59.01
15674;BME280;7937;48.090;16.212;2023-05-01T07:23:13;97954.94;;;11.28;55.56
15674;BME280;7937;48.090;16.212;2023-05-01T07:26:15;97952.41;;;11.33;54.79
15674;BME280;7937;48.090;16.212;2023-05-01T07:29:17;97951.00;;;11.47;60.19
15674;BME280;7937;48.090;16.212;2023-05-01T07:32:19;97952.25;;;11.56;62.11
15674;BME280;7937;48.090;16.212;2023-05-01T07:35:22;97946.69;;;11.75;58.16
15674;BME280;7937;48.090;16.212;2023-05-01T07:38:24;97945.66;;;11.93;60.32
15674;BME280;7937;48.090;16.212;2023-05-01T07:41:27;97949.84;;;12.05;59.82
15674;BME280;7937;48.090;16.212;2023-05-01T07:44:29;97936.66;;;12.16;54.68
15674;BME280;7937;48.090;16.212;2023-05-01T07:47:31;97938.16;;;12.28;53.75
15674;BME280;7937;48.090;16.212;2023-05-01T07:50:34;97928.63;;;12.54;57.45
15674;BME280;7937;48.090;16.212;2023-05-01T07:53:36;97935.69;;;12.65;57.65
15674;BME280;7937;48.090;16.212;2023-05-01T07:56:38;97931.53;;;12.75;60.37
15674;BME280;7937;48.090;16.212;2023-05-01T07:59:40;97907.19;;;12.71;55.95
15674;BME280;7937;48.090;16.212;2023-05-01T08:02:43;97938.00;;;13.01;53.18
15674;BME280;7937;48.090;16.212;2023-05-01T08:05:45;97940.84;;;13.16;53.88
15674;BME280;7937;48.090;16.212;2023-05-01T08:08:47;97928.22;;;13.38;52.15
15674;BME280;7937;48.090;16.212;2023-05-01T08:11:49;97936.47;;;13.32;52.89
15674;BME280;7937;48.090;16.212;2023-05-01T08:14:51;97923.81;;;13.22;52.13
15674;BME280;7937;48.090;16.212;2023-05-01T08:17:53;97925.06;;;13.41;53.04
15674;BME280;7937;48.090;16.212;2023-05-01T08:20:56;97936.06;;;13.45;55.89
15674;BME280;7937;48.090;16.212;2023-05-01T08:23:58;97926.88;;;13.36;52.89
15674;BME280;7937;48.090;16.212;2023-05-01T08:27:00;97928.69;;;13.57;54.44
15674;BME280;7937;48.090;16.212;2023-05-01T08:30:03;97927.56;;;13.85;52.94
15674;BME280;7937;48.090;16.212;2023-05-01T08:33:05;97931.22;;;14.11;55.87
15674;BME280;7937;48.090;16.212;2023-05-01T08:36:08;97931.03;;;14.28;53.01
15674;BME280;7937;48.090;16.212;2023-05-01T08:39:11;97919.19;;;14.14;52.06
15674;BME280;7937;48.090;16.212;2023-05-01T08:42:13;97925.59;;;14.13;52.42
15674;BME280;7937;48.090;16.212;2023-05-01T08:45:17;97919.44;;;14.12;53.89
15674;BME280;7937;48.090;16.212;2023-05-01T08:48:19;97928.97;;;14.35;52.66
15674;BME280;7937;48.090;16.212;2023-05-01T08:51:24;97919.03;;;14.36;51.54
15674;BME280;7937;48.090;16.212;2023-05-01T08:54:28;97917.59;;;14.18;53.82
15674;BME280;7937;48.090;16.212;2023-05-01T08:57:32;97914.44;;;14.26;51.76
15674;BME280;7937;48.090;16.212;2023-05-01T09:00:36;97897.31;;;14.32;55.10
15674;BME280;7937;48.090;16.212;2023-05-01T09:03:39;97897.78;;;14.71;53.65
15674;BME280;7937;48.090;16.212;2023-05-01T09:06:43;97898.41;;;14.99;50.85
15674;BME280;7937;48.090;16.212;2023-05-01T09:09:45;97894.94;;;15.04;53.85
15674;BME280;7937;48.090;16.212;2023-05-01T09:12:51;97886.13;;;15.29;48.61
15674;BME280;7937;48.090;16.212;2023-05-01T09:15:56;97888.78;;;15.23;51.48
15674;BME280;7937;48.090;16.212;2023-05-01T09:18:59;97883.97;;;15.46;49.85
15674;BME280;7937;48.090;16.212;2023-05-01T09:22:01;97882.38;;;15.65;49.29
15674;BME280;7937;48.090;16.212;2023-05-01T09:25:03;97875.91;;;15.56;49.94
15674;BME280;7937;48.090;16.212;2023-05-01T09:28:06;97888.56;;;15.71;47.79
15674;BME280;7937;48.090;16.212;2023-05-01T09:31:28;97882.38;;;15.86;48.81
15674;BME280;7937;48.090;16.212;2023-05-01T09:34:30;97872.97;;;15.83;52.22
15674;BME280;7937;48.090;16.212;2023-05-01T09:37:33;97873.50;;;15.90;50.27
15674;BME280;7937;48.090;16.212;2023-05-01T09:40:35;97873.22;;;15.97;47.85
15674;BME280;7937;48.090;16.212;2023-05-01T09:43:37;97874.03;;;15.92;48.04
15674;BME280;7937;48.090;16.212;2023-05-01T09:46:41;97861.66;;;16.07;47.01
15674;BME280;7937;48.090;16.212;2023-05-01T09:49:45;97862.97;;;16.09;46.28
15674;BME280;7937;48.090;16.212;2023-05-01T09:52:50;97872.88;;;16.24;47.45
15674;BME280;7937;48.090;16.212;2023-05-01T09:55:59;97863.75;;;16.20;49.60
15674;BME280;7937;48.090;16.212;2023-05-01T09:59:16;97865.56;;;16.40;47.25
15674;BME280;7937;48.090;16.212;2023-05-01T10:02:27;97852.69;;;16.37;46.10
15674;BME280;7937;48.090;16.212;2023-05-01T10:05:41;97853.03;;;16.15;48.13
15674;BME280;7937;48.090;16.212;2023-05-01T10:08:46;97852.72;;;16.32;48.50
15674;BME280;7937;48.090;16.212;2023-05-01T10:11:50;97848.06;;;16.52;51.62
15674;BME280;7937;48.090;16.212;2023-05-01T10:14:56;97856.31;;;16.66;45.76
15674;BME280;7937;48.090;16.212;2023-05-01T10:17:59;97850.91;;;16.82;46.00
15674;BME280;7937;48.090;16.212;2023-05-01T10:21:02;97841.91;;;17.01;47.55
15674;BME280;7937;48.090;16.212;2023-05-01T10:24:05;97841.25;;;17.20;45.62
15674;BME280;7937;48.090;16.212;2023-05-01T10:27:09;97844.81;;;17.10;45.78
15674;BME280;7937;48.090;16.212;2023-05-01T10:30:13;97834.75;;;17.21;46.30
15674;BME280;7937;48.090;16.212;2023-05-01T10:33:17;97838.44;;;17.35;44.84
15674;BME280;7937;48.090;16.212;2023-05-01T10:36:40;97828.41;;;17.41;45.84
15674;BME280;7937;48.090;16.212;2023-05-01T10:39:43;97820.88;;;17.38;46.59
15674;BME280;7937;48.090;16.212;2023-05-01T10:43:14;97823.19;;;17.20;44.61
15674;BME280;7937;48.090;16.212;2023-05-01T10:49:21;97826.47;;;17.46;46.46
15674;BME280;7937;48.090;16.212;2023-05-01T10:52:24;97818.78;;;17.64;43.78
15674;BME280;7937;48.090;16.212;2023-05-01T10:55:36;97812.81;;;17.67;45.45
15674;BME280;7937;48.090;16.212;2023-05-01T11:01:42;97800.78;;;17.88;45.44
15674;BME280;7937;48.090;16.212;2023-05-01T11:04:48;97804.69;;;18.25;42.63
15674;BME280;7937;48.090;16.212;2023-05-01T11:08:29;97806.75;;;18.33;44.30
15674;BME280;7937;48.090;16.212;2023-05-01T11:17:55;97782.84;;;17.78;44.99
15674;BME280;7937;48.090;16.212;2023-05-01T11:20:58;97792.81;;;18.02;44.48
15674;BME280;7937;48.090;16.212;2023-05-01T11:24:00;97796.53;;;18.06;44.06
15674;BME280;7937;48.090;16.212;2023-05-01T11:27:03;97801.41;;;18.04;43.57
15674;BME280;7937;48.090;16.212;2023-05-01T11:30:06;97793.16;;;17.95;43.50
15674;BME280;7937;48.090;16.212;2023-05-01T11:33:08;97787.72;;;18.00;44.88
15674;BME280;7937;48.090;16.212;2023-05-01T11:36:11;97765.69;;;17.93;45.18
15674;BME280;7937;48.090;16.212;2023-05-01T11:39:15;97776.41;;;17.98;46.12
15674;BME280;7937;48.090;16.212;2023-05-01T11:42:21;97782.75;;;18.08;44.61
15674;BME280;7937;48.090;16.212;2023-05-01T11:45:23;97780.47;;;17.96;43.58
15674;BME280;7937;48.090;16.212;2023-05-01T11:48:26;97782.88;;;17.97;43.50
15674;BME280;7937;48.090;16.212;2023-05-01T11:51:29;97780.66;;;17.81;44.42
15674;BME280;7937;48.090;16.212;2023-05-01T11:54:46;97780.47;;;17.67;43.51
15674;BME280;7937;48.090;16.212;2023-05-01T11:57:50;97771.00;;;17.16;44.66
15674;BME280;7937;48.090;16.212;2023-05-01T12:00:52;97770.31;;;17.00;45.44
15674;BME280;7937;48.090;16.212;2023-05-01T12:03:54;97767.69;;;16.90;47.54
15674;BME280;7937;48.090;16.212;2023-05-01T12:06:56;97753.13;;;16.96;46.61
15674;BME280;7937;48.090;16.212;2023-05-01T12:09:58;97753.84;;;17.07;46.56
15674;BME280;7937;48.090;16.212;2023-05-01T12:13:06;97759.03;;;17.27;47.73
15674;BME280;7937;48.090;16.212;2023-05-01T12:16:08;97751.94;;;17.66;45.81
15674;BME280;7937;48.090;16.212;2023-05-01T12:19:14;97752.78;;;18.14;44.17
15674;BME280;7937;48.090;16.212;2023-05-01T12:22:16;97745.72;;;18.37;42.67
15674;BME280;7937;48.090;16.212;2023-05-01T12:25:19;97746.53;;;18.38;41.80
15674;BME280;7937;48.090;16.212;2023-05-01T12:28:21;97740.38;;;18.32;42.42
15674;BME280;7937;48.090;16.212;2023-05-01T12:31:24;97714.63;;;18.02;41.16
15674;BME280;7937;48.090;16.212;2023-05-01T12:34:29;97736.44;;;17.82;43.62
15674;BME280;7937;48.090;16.212;2023-05-01T12:37:34;97733.81;;;17.71;44.64
15674;BME280;7937;48.090;16.212;2023-05-01T12:40:38;97711.19;;;17.72;43.24
15674;BME280;7937;48.090;16.212;2023-05-01T12:43:40;97736.38;;;17.87;43.58
15674;BME280;7937;48.090;16.212;2023-05-01T12:50:01;97720.09;;;17.73;42.66
15674;BME280;7937;48.090;16.212;2023-05-01T12:53:03;97718.38;;;17.82;41.53
15674;BME280;7937;48.090;16.212;2023-05-01T12:56:07;97715.34;;;17.89;41.58
15674;BME280;7937;48.090;16.212;2023-05-01T12:59:20;97714.63;;;18.02;42.05
15674;BME280;7937;48.090;16.212;2023-05-01T13:02:28;97694.22;;;17.96;41.53
15674;BME280;7937;48.090;16.212;2023-05-01T13:05:31;97704.50;;;17.94;42.90
15674;BME280;7937;48.090;16.212;2023-05-01T13:08:36;97698.53;;;17.97;42.01
15674;BME280;7937;48.090;16.212;2023-05-01T13:11:38;97704.44;;;17.99;41.77
15674;BME280;7937;48.090;16.212;2023-05-01T13:14:41;97694.06;;;17.87;41.98
15674;BME280;7937;48.090;16.212;2023-05-01T13:17:44;97692.59;;;17.76;42.16
15674;BME280;7937;48.090;16.212;2023-05-01T13:20:46;97688.38;;;17.65;43.72
15674;BME280;7937;48.090;16.212;2023-05-01T13:23:54;97693.72;;;17.70;42.29
15674;BME280;7937;48.090;16.212;2023-05-01T13:26:56;97681.50;;;17.77;41.26
15674;BME280;7937;48.090;16.212;2023-05-01T13:30:06;97692.06;;;17.74;41.86
15674;BME280;7937;48.090;16.212;2023-05-01T13:33:09;97666.97;;;17.78;42.47
15674;BME280;7937;48.090;16.212;2023-05-01T13:36:13;97672.81;;;18.04;41.72
15674;BME280;7937;48.090;16.212;2023-05-01T13:39:26;97648.56;;;18.23;40.85
15674;BME280;7937;48.090;16.212;2023-05-01T13:42:29;97654.59;;;18.53;40.49
15674;BME280;7937;48.090;16.212;2023-05-01T13:45:31;97652.53;;;18.64;40.33
15674;BME280;7937;48.090;16.212;2023-05-01T13:48:33;97621.69;;;18.51;40.88
15674;BME280;7937;48.090;16.212;2023-05-01T13:51:40;97652.75;;;18.67;39.45
15674;BME280;7937;48.090;16.212;2023-05-01T13:54:44;97647.09;;;18.50;40.77
15674;BME280;7937;48.090;16.212;2023-05-01T13:57:47;97647.34;;;18.67;40.77
15674;BME280;7937;48.090;16.212;2023-05-01T14:00:50;97645.97;;;18.70;41.38
15674;BME280;7937;48.090;16.212;2023-05-01T14:03:54;97638.50;;;18.48;40.92
15674;BME280;7937;48.090;16.212;2023-05-01T14:06:58;97639.44;;;18.57;40.43
15674;BME280;7937;48.090;16.212;2023-05-01T14:10:01;97631.69;;;18.50;40.90
15674;BME280;7937;48.090;16.212;2023-05-01T14:13:04;97622.94;;;18.59;42.90
15674;BME280;7937;48.090;16.212;2023-05-01T14:16:08;97614.84;;;18.77;40.97
15674;BME280;7937;48.090;16.212;2023-05-01T14:19:14;97622.31;;;18.80;41.63
15674;BME280;7937;48.090;16.212;2023-05-01T14:22:17;97631.81;;;18.78;41.12
15674;BME280;7937;48.090;16.212;2023-05-01T14:25:31;97615.81;;;18.49;42.25
15674;BME280;7937;48.090;16.212;2023-05-01T14:28:46;97610.59;;;18.39;43.15
15674;BME280;7937;48.090;16.212;2023-05-01T14:31:48;97606.88;;;18.35;42.08
15674;BME280;7937;48.090;16.212;2023-05-01T14:34:50;97595.94;;;18.07;43.04
15674;BME280;7937;48.090;16.212;2023-05-01T14:37:53;97616.63;;;18.12;44.97
15674;BME280;7937;48.090;16.212;2023-05-01T14:40:56;97605.78;;;18.17;42.52
15674;BME280;7937;48.090;16.212;2023-05-01T14:43:58;97609.19;;;18.22;39.69
15674;BME280;7937;48.090;16.212;2023-05-01T14:47:01;97606.94;;;18.11;40.87
15674;BME280;7937;48.090;16.212;2023-05-01T14:50:05;97599.66;;;18.11;40.92
15674;BME280;7937;48.090;16.212;2023-05-01T14:53:07;97602.72;;;18.04;41.45
15674;BME280;7937;48.090;16.212;2023-05-01T14:56:11;97593.16;;;18.12;40.17
15674;BME280;7937;48.090;16.212;2023-05-01T14:59:13;97595.81;;;17.98;41.19
15674;BME280;7937;48.090;16.212;2023-05-01T15:02:15;97591.88;;;17.91;42.14
15674;BME280;7937;48.090;16.212;2023-05-01T15:05:17;97598.22;;;18.00;41.43
15674;BME280;7937;48.090;16.212;2023-05-01T15:08:20;97585.47;;;18.05;40.87
15674;BME280;7937;48.090;16.212;2023-05-01T15:11:22;97599.31;;;17.99;40.85
15674;BME280;7937;48.090;16.212;2023-05-01T15:14:24;97596.22;;;17.87;41.41
15674;BME280;7937;48.090;16.212;2023-05-01T15:17:28;97589.97;;;17.91;40.79
15674;BME280;7937;48.090;16.212;2023-05-01T15:20:32;97597.97;;;17.77;41.42
15674;BME280;7937;48.090;16.212;2023-05-01T15:23:34;97590.19;;;17.76;41.32
15674;BME280;7937;48.090;16.212;2023-05-01T15:26:37;97604.25;;;17.68;41.40
15674;BME280;7937;48.090;16.212;2023-05-01T15:29:39;97603.84;;;17.61;40.63
15674;BME280;7937;48.090;16.212;2023-05-01T15:32:42;97603.72;;;17.47;42.67
15674;BME280;7937;48.090;16.212;2023-05-01T15:35:45;97591.19;;;17.37;44.12
15674;BME280;7937;48.090;16.212;2023-05-01T15:38:47;97586.34;;;17.39;42.79
15674;BME280;7937;48.090;16.212;2023-05-01T15:41:49;97592.84;;;17.33;43.93
15674;BME280;7937;48.090;16.212;2023-05-01T15:44:53;97594.47;;;17.34;43.08
15674;BME280;7937;48.090;16.212;2023-05-01T15:47:55;97574.19;;;17.18;44.24
15674;BME280;7937;48.090;16.212;2023-05-01T15:50:57;97592.75;;;17.19;45.60
15674;BME280;7937;48.090;16.212;2023-05-01T15:53:59;97592.53;;;17.16;45.67
15674;BME280;7937;48.090;16.212;2023-05-01T15:57:02;97586.84;;;17.17;45.52
15674;BME280;7937;48.090;16.212;2023-05-01T16:00:05;97582.03;;;17.14;44.90
15674;BME280;7937;48.090;16.212;2023-05-01T16:03:09;97588.50;;;17.13;45.65
15674;BME280;7937;48.090;16.212;2023-05-01T16:06:15;97578.09;;;17.07;45.53
15674;BME280;7937;48.090;16.212;2023-05-01T16:09:17;97582.72;;;17.01;45.98
15674;BME280;7937;48.090;16.212;2023-05-01T16:12:21;97588.41;;;16.94;46.92
15674;BME280;7937;48.090;16.212;2023-05-01T16:15:23;97576.91;;;16.89;46.77
15674;BME280;7937;48.090;16.212;2023-05-01T16:18:25;97591.56;;;16.77;48.46
15674;BME280;7937;48.090;16.212;2023-05-01T16:21:27;97583.78;;;16.76;46.17
15674;BME280;7937;48.090;16.212;2023-05-01T16:24:33;97589.44;;;16.69;47.18
15674;BME280;7937;48.090;16.212;2023-05-01T16:27:42;97587.91;;;16.63;46.86
15674;BME280;7937;48.090;16.212;2023-05-01T16:30:47;97575.63;;;16.52;48.42
15674;BME280;7937;48.090;16.212;2023-05-01T16:33:49;97582.16;;;16.46;49.77
15674;BME280;7937;48.090;16.212;2023-05-01T16:36:54;97583.50;;;16.43;49.15
15674;BME280;7937;48.090;16.212;2023-05-01T16:39:58;97588.44;;;16.31;50.42
15674;BME280;7937;48.090;16.212;2023-05-01T16:43:01;97588.25;;;16.22;49.43
15674;BME280;7937;48.090;16.212;2023-05-01T16:46:03;97573.53;;;16.10;51.66
15674;BME280;7937;48.090;16.212;2023-05-01T16:49:05;97549.50;;;15.89;48.83
15674;BME280;7937;48.090;16.212;2023-05-01T16:52:08;97578.44;;;16.03;50.53
15674;BME280;7937;48.090;16.212;2023-05-01T16:55:14;97576.59;;;15.98;50.09
15674;BME280;7937;48.090;16.212;2023-05-01T16:58:16;97583.03;;;15.97;50.38
15674;BME280;7937;48.090;16.212;2023-05-01T17:01:18;97568.34;;;15.84;52.79